Time;durP1;ratioP1;P1;durP2;ratioP2;P2;SDS_P1;SDS_P2;PMS_P1;PMS_P2;Temp;Humidity;BMP_temperature;BMP_pressure;BME280_temperature;BME280_humidity;BME280_pressure;Samples;Min_cycle;Max_cycle;Signal;HPM_P1;HPM_P2
2023/01/16 00:01:20;;;;;;;0.30;0.30;;;;;;;3.99;95.50;99672.81;5052783;27;99649;-28
2023/01/16 00:03:46;;;;;;;3.38;0.38;;;;;;;3.98;95.17;99665.72;5051805;27;101549;-29
2023/01/16 00:06:12;;;;;;;1.00;0.65;;;;;;;3.96;94.99;99660.47;5053174;27;96511;-31
2023/01/16 00:08:37;;;;;;;0.08;0.08;;;;;;;3.94;95.53;99650.78;5052839;27;96560;-29
2023/01/16 00:11:02;;;;;;;0.40;0.25;;;;;;;3.93;95.15;99646.34;5052612;27;103227;-29
2023/01/16 00:13:28;;;;;;;0.90;0.45;;;;;;;3.96;95.34;99640.84;5051386;27;98841;-29
2023/01/16 00:15:53;;;;;;;0.47;0.30;;;;;;;3.96;95.33;99640.84;5052283;27;98366;-28
2023/01/16 00:18:18;;;;;;;0.32;0.17;;;;;;;3.89;95.56;99643.00;5052764;27;100295;-29
2023/01/16 00:20:45;;;;;;;0.10;0.10;;;;;;;3.91;95.84;99638.41;5052987;27;97336;-29
2023/01/16 00:23:11;;;;;;;0.60;0.43;;;;;;;3.96;95.63;99643.53;5050931;27;100733;-29
2023/01/16 00:25:43;;;;;;;1.00;0.32;;;;;;;3.96;95.58;99641.72;5052521;27;96559;-28
2023/01/16 00:28:09;;;;;;;;;;;;;;;3.93;95.49;99632.97;5051737;27;96841;-30
2023/01/16 00:30:35;;;;;;;0.80;0.40;;;;;;;3.91;95.89;99619.66;5052586;27;97239;-29
2023/01/16 00:33:01;;;;;;;0.15;0.10;;;;;;;3.87;95.43;99618.09;5052886;27;99260;-30
2023/01/16 00:35:26;;;;;;;1.67;0.65;;;;;;;3.80;95.92;99616.69;5052389;27;96547;-29
2023/01/16 00:37:52;;;;;;;1.25;0.45;;;;;;;3.81;95.93;99608.59;5052250;27;96919;-28
2023/01/16 00:40:18;;;;;;;0.73;0.55;;;;;;;3.77;96.79;99612.38;5050636;27;100645;-29
2023/01/16 00:42:43;;;;;;;0.22;0.22;;;;;;;3.82;96.95;99599.59;5052503;27;98323;-29
2023/01/16 00:45:09;;;;;;;5.47;0.30;;;;;;;3.81;96.79;99600.56;5052626;27;96693;-28
2023/01/16 00:47:34;;;;;;;2.45;1.15;;;;;;;3.82;96.41;99582.66;5050934;27;97026;-30
2023/01/16 00:49:59;;;;;;;0.20;0.20;;;;;;;3.83;96.37;99581.69;5052227;27;99010;-28
2023/01/16 00:52:25;;;;;;;1.77;0.60;;;;;;;3.83;96.85;99584.38;5051454;27;113984;-28
2023/01/16 00:54:50;;;;;;;0.43;0.30;;;;;;;3.75;97.13;99567.88;5052041;27;99675;-29
2023/01/16 00:57:15;;;;;;;2.08;0.47;;;;;;;3.74;97.34;99553.63;5052647;27;96763;-29
2023/01/16 00:59:41;;;;;;;0.47;0.35;;;;;;;3.72;97.16;99555.53;5055141;27;104831;-29
2023/01/16 01:02:06;;;;;;;0.47;0.45;;;;;;;3.76;97.34;99558.88;5056051;27;100464;-29
2023/01/16 01:04:31;;;;;;;1.85;0.63;;;;;;;3.75;97.66;99552.66;5055676;27;96616;-28
2023/01/16 01:06:57;;;;;;;0.65;0.40;;;;;;;3.77;97.35;99545.41;5055722;27;96829;-30
2023/01/16 01:09:22;;;;;;;0.98;0.50;;;;;;;3.76;97.46;99540.13;5055210;27;111426;-29
2023/01/16 01:11:47;;;;;;;0.60;0.47;;;;;;;3.78;97.49;99531.06;5055666;27;97848;-29
2023/01/16 01:14:13;;;;;;;2.45;0.75;;;;;;;3.78;96.94;99524.84;5055764;27;96861;-29
2023/01/16 01:16:40;;;;;;;0.70;0.38;;;;;;;3.75;97.45;99514.31;5055759;27;96725;-29
2023/01/16 01:19:05;;;;;;;3.40;0.68;;;;;;;3.76;97.46;99513.34;5054022;27;100884;-29
2023/01/16 01:21:30;;;;;;;0.80;0.52;;;;;;;3.72;97.17;99512.66;5055911;27;97832;-28
2023/01/16 01:23:56;;;;;;;1.02;0.52;;;;;;;3.68;97.27;99499.53;5055328;27;97039;-29
2023/01/16 01:26:21;;;;;;;0.35;0.35;;;;;;;3.67;97.47;99498.69;5056123;27;96707;-29
2023/01/16 01:28:47;;;;;;;0.57;0.50;;;;;;;3.62;97.80;99495.34;5054294;27;99287;-29
2023/01/16 01:31:13;;;;;;;0.88;0.45;;;;;;;3.59;98.16;99485.69;5055404;27;103852;-28
2023/01/16 01:33:39;;;;;;;0.60;0.38;;;;;;;3.59;97.86;99483.00;5053965;27;96538;-29
2023/01/16 01:36:06;;;;;;;1.00;0.45;;;;;;;3.57;98.43;99484.03;5053785;27;96795;-29
2023/01/16 01:38:32;;;;;;;1.42;0.50;;;;;;;3.58;98.20;99475.94;5053654;27;101075;-29
2023/01/16 01:40:58;;;;;;;0.43;0.25;;;;;;;3.55;98.63;99472.56;5053861;27;100871;-28
2023/01/16 01:43:59;;;;;;;1.30;0.85;;;;;;;3.58;98.93;99459.03;5055598;27;96512;-29
2023/01/16 01:46:46;;;;;;;0.75;0.35;;;;;;;3.63;98.74;99453.41;4992687;28;96598;-29
2023/01/16 01:49:27;;;;;;;0.00;0.00;;;;;;;3.65;98.43;99447.03;5048833;27;101200;-28
2023/01/16 01:51:59;;;;;;;1.00;0.30;;;;;;;3.65;98.11;99439.00;5053622;27;103906;-29
2023/01/16 01:54:31;;;;;;;0.77;0.40;;;;;;;3.64;98.56;99439.91;5054884;27;96588;-29
2023/01/16 01:56:58;;;;;;;;;;;;;;;3.67;97.98;99431.75;5053907;27;96924;-29
2023/01/16 01:59:29;;;;;;;0.52;0.22;;;;;;;3.66;97.86;99421.97;5055123;27;97971;-29
2023/01/16 02:01:56;;;;;;;5.80;0.28;;;;;;;3.65;98.03;99414.00;5053430;27;100811;-30
2023/01/16 02:04:26;;;;;;;0.10;0.10;;;;;;;3.61;97.82;99399.94;5053714;27;96618;-28
2023/01/16 02:06:54;;;;;;;0.25;0.25;;;;;;;3.63;97.68;99405.22;5053485;27;96767;-29
2023/01/16 02:09:22;;;;;;;0.60;0.35;;;;;;;3.64;97.47;99401.56;5052767;27;100531;-28
2023/01/16 02:12:01;;;;;;;0.75;0.55;;;;;;;3.62;97.45;99393.63;5054558;27;97335;-29
2023/01/16 02:14:28;;;;;;;0.20;0.17;;;;;;;3.58;97.82;99400.13;5054823;27;96552;-28
2023/01/16 02:20:09;;;;;;;0.22;0.17;;;;;;;3.60;97.65;99396.41;5054235;27;97088;-28
2023/01/16 02:22:52;;;;;;;0.20;0.10;;;;;;;3.58;98.31;99389.41;5054515;27;97732;-30
2023/01/16 02:25:36;;;;;;;1.63;0.70;;;;;;;3.62;98.13;99407.00;5055073;27;96431;-28
2023/01/16 02:28:38;;;;;;;0.80;0.40;;;;;;;3.61;98.51;99390.09;5054503;27;96608;-29
2023/01/16 02:31:33;;;;;;;0.32;0.32;;;;;;;3.65;98.52;99372.06;5053080;27;100729;-28
2023/01/16 02:34:23;;;;;;;0.20;0.20;;;;;;;3.64;97.85;99348.03;5053074;27;100762;-29
2023/01/16 02:37:10;;;;;;;0.73;0.50;;;;;;;3.61;97.87;99355.28;5052906;27;96533;-29
2023/01/16 02:39:40;;;;;;;0.43;0.40;;;;;;;3.57;97.74;99340.34;5055108;27;96605;-29
2023/01/16 02:42:28;;;;;;;0.73;0.40;;;;;;;3.59;98.03;99327.72;5054614;27;97894;-30
2023/01/16 02:45:29;;;;;;;1.05;0.70;;;;;;;3.63;97.42;99324.91;5052628;27;101097;-29
2023/01/16 02:48:07;;;;;;;0.50;0.43;;;;;;;3.62;97.32;99313.31;5045187;27;96589;-29
2023/01/16 02:50:45;;;;;;;0.85;0.47;;;;;;;3.61;97.07;99306.25;5054111;27;96702;-29
2023/01/16 02:53:26;;;;;;;0.08;0.08;;;;;;;3.61;97.41;99292.84;5052516;27;100747;-29
2023/01/16 02:56:08;;;;;;;1.77;0.23;;;;;;;3.59;96.76;99292.06;5053983;27;98736;-29
2023/01/16 02:58:45;;;;;;;0.70;0.50;;;;;;;3.61;96.75;99276.78;5052702;27;96618;-29
2023/01/16 03:01:13;;;;;;;0.80;0.30;;;;;;;3.58;96.95;99264.44;5052811;27;96670;-29
2023/01/16 03:03:50;;;;;;;1.25;0.70;;;;;;;3.57;97.14;99267.19;5053656;27;97985;-29
2023/01/16 03:06:53;;;;;;;0.40;0.30;;;;;;;3.60;96.96;99269.72;5052739;27;101501;-29
2023/01/16 03:09:23;;;;;;;;;;;;;;;3.58;97.39;99268.94;5052970;27;96630;-29
2023/01/16 03:12:24;;;;;;;0.00;0.00;;;;;;;3.57;97.08;99262.69;5054117;27;96726;-29
2023/01/16 03:15:11;;;;;;;0.50;0.45;;;;;;;3.54;97.04;99245.97;5018771;27;97893;-30
2023/01/16 03:17:49;;;;;;;0.95;0.50;;;;;;;3.56;97.13;99249.44;5053840;27;97383;-29
2023/01/16 03:20:23;;;;;;;0.03;0.03;;;;;;;3.55;97.69;99234.31;5052123;27;96725;-28
2023/01/16 03:23:03;;;;;;;1.25;0.65;;;;;;;3.57;97.30;99224.38;5053648;27;96804;-31
2023/01/16 03:25:41;;;;;;;2.50;0.30;;;;;;;3.54;97.19;99221.88;5053905;27;97877;-30
2023/01/16 03:28:10;;;;;;;1.42;0.32;;;;;;;3.53;97.30;99214.81;5052193;27;101162;-28
2023/01/16 03:30:45;;;;;;;0.93;0.60;;;;;;;3.51;97.71;99206.00;5051767;27;96626;-29
2023/01/16 03:33:29;;;;;;;1.48;0.52;;;;;;;3.52;97.11;99197.88;5054402;27;96471;-29
2023/01/16 03:36:01;;;;;;;0.25;0.10;;;;;;;3.52;96.94;99181.81;5053514;27;97957;-29
2023/01/16 03:38:29;;;;;;;0.25;0.13;;;;;;;3.56;97.20;99186.03;5051895;27;100675;-31
2023/01/16 03:41:00;;;;;;;0.20;0.20;;;;;;;3.53;97.22;99163.97;5051549;27;96850;-29
2023/01/16 03:43:35;;;;;;;0.10;0.05;;;;;;;3.57;97.40;99160.97;5052169;27;97119;-28
2023/01/16 03:46:03;;;;;;;4.55;0.10;;;;;;;3.59;97.04;99152.88;5051388;27;101404;-29
2023/01/16 03:48:42;;;;;;;0.20;0.10;;;;;;;3.61;97.14;99142.94;5053556;27;97241;-29
2023/01/16 03:51:12;;;;;;;0.32;0.17;;;;;;;3.62;96.99;99125.91;5052024;27;96559;-28
2023/01/16 03:53:46;;;;;;;0.00;0.00;;;;;;;3.62;96.58;99120.53;5051849;27;96810;-29
2023/01/16 03:56:19;;;;;;;2.13;0.30;;;;;;;3.63;96.43;99110.72;5051842;27;98869;-28
2023/01/16 03:58:48;;;;;;;0.00;0.00;;;;;;;3.61;96.32;99098.28;5051885;27;100959;-29
2023/01/16 04:01:32;;;;;;;0.00;0.00;;;;;;;3.63;96.67;99090.16;5053087;27;96631;-29
2023/01/16 04:04:03;;;;;;;0.65;0.25;;;;;;;3.63;96.38;99079.47;5053284;27;96467;-28
2023/01/16 04:06:39;;;;;;;0.00;0.00;;;;;;;3.65;96.67;99082.91;5051166;27;100746;-29
2023/01/16 04:09:12;;;;;;;9.13;0.52;;;;;;;3.66;96.25;99071.22;5051582;27;100922;-29
2023/01/16 04:11:39;;;;;;;0.00;0.00;;;;;;;3.67;96.28;99067.59;5051581;27;96634;-28
2023/01/16 04:14:09;;;;;;;0.00;0.00;;;;;;;3.70;96.21;99058.53;5051548;27;96782;-29
2023/01/16 04:16:35;;;;;;;0.10;0.10;;;;;;;3.69;96.07;99046.94;5051208;27;101060;-29
2023/01/16 04:19:03;;;;;;;0.15;0.10;;;;;;;3.69;96.07;99036.22;5051247;27;100808;-29
2023/01/16 04:21:31;;;;;;;0.32;0.13;;;;;;;3.70;96.06;99031.75;5051511;27;96830;-29
2023/01/16 04:23:57;;;;;;;1.48;0.28;;;;;;;3.70;96.12;99015.69;5051904;27;96845;-29
2023/01/16 04:26:23;;;;;;;0.70;0.15;;;;;;;3.73;96.59;99013.66;5051300;27;98831;-28
2023/01/16 04:28:53;;;;;;;0.13;0.13;;;;;;;3.74;96.27;99012.72;5051913;27;98857;-28
2023/01/16 04:31:19;;;;;;;0.00;0.00;;;;;;;3.71;95.54;99004.84;5050789;27;97212;-28
2023/01/16 04:33:44;;;;;;;0.08;0.00;;;;;;;3.75;95.91;98992.16;5050447;27;97002;-29
2023/01/16 04:36:09;;;;;;;0.00;0.00;;;;;;;3.75;95.94;98986.78;5052425;27;99204;-28
2023/01/16 04:38:34;;;;;;;0.73;0.17;;;;;;;3.77;95.91;98979.53;5052398;27;97761;-29
2023/01/16 04:41:00;;;;;;;0.20;0.20;;;;;;;3.78;95.94;98965.16;5052762;27;96544;-29
2023/01/16 04:43:25;;;;;;;0.15;0.05;;;;;;;3.77;95.86;98956.28;5052572;27;96859;-30
2023/01/16 04:45:50;;;;;;;0.10;0.00;;;;;;;3.78;96.03;98944.59;5051893;27;99164;-28
2023/01/16 04:48:16;;;;;;;0.63;0.10;;;;;;;3.80;95.85;98937.34;5052574;27;99866;-29
2023/01/16 04:50:41;;;;;;;0.10;0.10;;;;;;;3.78;95.67;98925.84;5052298;27;96558;-28
2023/01/16 04:53:07;;;;;;;0.10;0.10;;;;;;;3.75;96.02;98910.00;5052489;27;96687;-29
2023/01/16 04:55:32;;;;;;;0.22;0.20;;;;;;;3.80;96.07;98907.03;5051892;27;98004;-28
2023/01/16 04:57:57;;;;;;;2.95;0.57;;;;;;;3.83;96.02;98898.78;5052287;27;97787;-29
2023/01/16 05:00:23;;;;;;;0.95;0.32;;;;;;;3.81;95.84;98890.88;5052025;27;96695;-29
2023/01/16 05:02:48;;;;;;;1.02;0.32;;;;;;;3.80;96.04;98882.94;5052143;27;96786;-30
2023/01/16 05:05:14;;;;;;;0.20;0.10;;;;;;;3.77;95.74;98862.56;5052266;27;99446;-29
2023/01/16 05:07:39;;;;;;;0.10;0.10;;;;;;;3.80;96.13;98866.84;5052001;27;99288;-30
2023/01/16 05:10:05;;;;;;;0.63;0.30;;;;;;;3.77;95.92;98851.84;5052374;27;96656;-29
2023/01/16 05:12:30;;;;;;;0.65;0.20;;;;;;;3.77;95.83;98846.50;5052692;27;96706;-28
2023/01/16 05:14:55;;;;;;;2.63;0.22;;;;;;;3.73;96.27;98823.56;5052014;27;98008;-28
2023/01/16 05:17:24;;;;;;;0.50;0.30;;;;;;;3.74;95.68;98827.97;5051836;27;97323;-29
2023/01/16 05:19:49;;;;;;;0.00;0.00;;;;;;;3.70;96.06;98814.88;5051618;27;96576;-28
2023/01/16 05:22:15;;;;;;;0.08;0.03;;;;;;;3.72;95.85;98812.94;5051794;27;96456;-29
2023/01/16 05:24:40;;;;;;;0.28;0.03;;;;;;;3.74;96.33;98794.97;5052026;27;97822;-28
2023/01/16 05:27:05;;;;;;;0.00;0.00;;;;;;;3.71;96.42;98787.13;5051944;27;97781;-29
2023/01/16 05:29:31;;;;;;;0.00;0.00;;;;;;;3.68;96.70;98776.66;5051334;27;96749;-29
2023/01/16 05:31:56;;;;;;;0.10;0.10;;;;;;;3.72;96.45;98773.66;5051793;27;96863;-28
2023/01/16 05:34:21;;;;;;;0.03;0.03;;;;;;;3.72;96.73;98765.63;5051584;27;99234;-30
2023/01/16 05:36:47;;;;;;;0.25;0.20;;;;;;;3.72;96.41;98756.72;5052439;27;97167;-29
2023/01/16 05:39:12;;;;;;;0.38;0.25;;;;;;;3.72;96.61;98743.31;5051742;27;96479;-29
2023/01/16 05:41:37;;;;;;;0.00;0.00;;;;;;;3.72;96.68;98752.25;5052022;27;96758;-29
2023/01/16 05:44:03;;;;;;;0.20;0.13;;;;;;;3.71;97.26;98749.66;5051504;27;97843;-29
2023/01/16 05:46:29;;;;;;;0.00;0.00;;;;;;;3.71;97.46;98733.59;5055053;27;97798;-29
2023/01/16 05:48:54;;;;;;;1.10;0.38;;;;;;;3.71;97.60;98728.25;5053708;27;96706;-29
2023/01/16 05:51:19;;;;;;;0.10;0.05;;;;;;;3.73;97.47;98731.69;5055400;27;96752;-29
2023/01/16 05:53:49;;;;;;;0.05;0.05;;;;;;;3.74;97.96;98728.03;5053678;27;99437;-29
2023/01/16 05:56:14;;;;;;;0.10;0.08;;;;;;;3.70;97.62;98714.00;5053593;27;101362;-30
2023/01/16 05:58:40;;;;;;;0.10;0.05;;;;;;;3.70;98.13;98708.66;5054820;27;97725;-29
2023/01/16 06:01:05;;;;;;;1.67;0.20;;;;;;;3.73;97.92;98711.09;5055341;27;96762;-29
2023/01/16 06:03:30;;;;;;;0.15;0.15;;;;;;;3.75;98.37;98698.47;5053632;27;101334;-29
2023/01/16 06:05:58;;;;;;;0.30;0.20;;;;;;;3.79;98.33;98700.00;5055222;27;97316;-29
2023/01/16 06:08:24;;;;;;;1.52;0.30;;;;;;;3.76;98.69;98693.97;5054282;27;96683;-28
2023/01/16 06:10:50;;;;;;;0.03;0.03;;;;;;;3.78;97.99;98679.53;5055065;27;96688;-30
2023/01/16 06:13:15;;;;;;;0.17;0.17;;;;;;;3.78;98.91;98667.97;5053019;27;101040;-29
2023/01/16 06:15:42;;;;;;;0.00;0.00;;;;;;;3.78;98.65;98665.28;5054701;27;99372;-29
2023/01/16 06:18:07;;;;;;;0.70;0.32;;;;;;;3.79;98.94;98662.50;5053266;27;96611;-29
2023/01/16 06:20:32;;;;;;;0.90;0.43;;;;;;;3.78;99.29;98652.75;5054540;27;96792;-29
2023/01/16 06:22:58;;;;;;;0.08;0.05;;;;;;;3.78;99.79;98652.75;5054116;27;99224;-30
2023/01/16 06:25:23;;;;;;;0.00;0.00;;;;;;;3.77;99.51;98642.16;5054960;27;97351;-29
2023/01/16 06:27:50;;;;;;;0.30;0.20;;;;;;;3.79;100.00;98638.41;5054565;27;96527;-29
2023/01/16 06:30:15;;;;;;;0.08;0.08;;;;;;;3.79;100.00;98627.69;5052544;27;96943;-29
2023/01/16 06:32:41;;;;;;;0.35;0.20;;;;;;;3.80;100.00;98616.00;5053774;27;99299;-28
2023/01/16 06:35:06;;;;;;;0.17;0.17;;;;;;;3.79;99.98;98598.25;5054299;27;99268;-28
2023/01/16 06:37:32;;;;;;;0.00;0.00;;;;;;;3.81;99.93;98601.69;5054598;27;96548;-29
2023/01/16 06:39:59;;;;;;;3.85;0.20;;;;;;;3.84;100.00;98592.56;5054232;27;96948;-28
2023/01/16 06:42:25;;;;;;;5.00;0.30;;;;;;;3.85;100.00;98578.19;5054005;27;99343;-29
2023/01/16 06:44:50;;;;;;;0.50;0.22;;;;;;;3.83;100.00;98564.91;5054298;27;97828;-29
2023/01/16 06:47:16;;;;;;;0.63;0.32;;;;;;;3.86;100.00;98565.66;5054157;27;97055;-29
2023/01/16 06:49:41;;;;;;;1.67;0.10;;;;;;;3.87;100.00;98562.88;5054452;27;96806;-28
2023/01/16 06:52:06;;;;;;;0.15;0.13;;;;;;;3.86;100.00;98544.25;5054071;27;97410;-29
2023/01/16 06:54:32;;;;;;;1.42;0.38;;;;;;;3.82;100.00;98531.09;5054235;27;98032;-29
2023/01/16 06:56:57;;;;;;;0.93;0.15;;;;;;;3.83;100.00;98526.56;5052714;27;96584;-29
2023/01/16 06:59:22;;;;;;;1.92;1.10;;;;;;;3.88;100.00;98519.06;5054122;27;96810;-30
2023/01/16 07:01:48;;;;;;;0.13;0.13;;;;;;;3.85;100.00;98510.41;5053809;27;99488;-29
2023/01/16 07:04:13;;;;;;;0.80;0.63;;;;;;;3.86;100.00;98499.56;5053943;27;97885;-29
2023/01/16 07:06:40;;;;;;;3.15;1.42;;;;;;;3.86;100.00;98488.00;5053982;27;97350;-28
2023/01/16 07:09:05;;;;;;;0.40;0.20;;;;;;;3.85;100.00;98475.59;5052490;27;96851;-30
2023/01/16 07:11:30;;;;;;;0.25;0.20;;;;;;;3.86;100.00;98464.75;5053546;27;97837;-29
2023/01/16 07:22:34;;;;;;;0.28;0.17;;;;;;;3.84;100.00;98461.38;5054093;27;99079;-29
2023/01/16 07:24:59;;;;;;;0.05;0.05;;;;;;;3.85;100.00;98420.22;5052168;27;96984;-29
2023/01/16 07:27:25;;;;;;;0.10;0.10;;;;;;;3.87;100.00;98409.41;5052306;27;96661;-28
2023/01/16 07:29:51;;;;;;;0.20;0.10;;;;;;;3.82;100.00;98391.00;5051504;27;96781;-28
2023/01/16 07:32:17;;;;;;;0.00;0.00;;;;;;;3.88;100.00;98397.72;5051921;27;100787;-28
2023/01/16 07:34:42;;;;;;;1.75;0.65;;;;;;;3.90;100.00;98393.09;5053516;27;97875;-29
2023/01/16 07:37:10;;;;;;;2.70;1.27;;;;;;;3.90;100.00;98377.03;5053697;27;96510;-29
2023/01/16 07:39:36;;;;;;;1.42;1.17;;;;;;;3.86;100.00;98375.53;5053865;27;96741;-29
2023/01/16 07:42:05;;;;;;;1.75;1.08;;;;;;;3.88;100.00;98371.78;5053055;27;97458;-28
2023/01/16 07:44:31;;;;;;;0.82;0.70;;;;;;;3.90;100.00;98364.50;5051871;27;101116;-29
2023/01/16 07:46:56;;;;;;;2.38;0.55;;;;;;;3.90;100.00;98358.28;5051604;27;97385;-30
2023/01/16 07:49:22;;;;;;;0.45;0.35;;;;;;;3.91;100.00;98360.00;5053439;27;96772;-29
2023/01/16 07:51:47;;;;;;;1.58;0.10;;;;;;;3.89;100.00;98349.41;5053258;27;97454;-29
2023/01/16 07:54:13;;;;;;;0.17;0.03;;;;;;;3.89;100.00;98338.69;5052952;27;98596;-29
2023/01/16 07:56:39;;;;;;;0.00;0.00;;;;;;;3.92;100.00;98341.13;5051794;27;96589;-29
2023/01/16 07:59:05;;;;;;;1.08;0.13;;;;;;;3.91;100.00;98327.84;5051328;27;96808;-31
2023/01/16 08:01:30;;;;;;;0.10;0.10;;;;;;;3.94;100.00;98327.66;5050470;27;98521;-29
2023/01/16 08:03:55;;;;;;;0.00;0.00;;;;;;;3.95;100.00;98330.19;5051040;27;97931;-30
2023/01/16 08:06:21;;;;;;;0.10;0.10;;;;;;;3.95;100.00;98327.50;5050827;27;97131;-32
2023/01/16 08:08:46;;;;;;;0.70;0.30;;;;;;;3.94;100.00;98312.44;5049532;27;97179;-32
2023/01/16 08:13:55;;;;;;;0.00;0.00;;;;;;;3.99;100.00;98317.44;5050498;27;97047;-34
2023/01/16 08:16:20;;;;;;;0.63;0.15;;;;;;;4.00;100.00;98311.09;5052901;27;96542;-29
2023/01/16 08:18:48;;;;;;;1.02;0.47;;;;;;;4.00;100.00;98308.41;5053015;27;96743;-29
2023/01/16 08:21:14;;;;;;;0.28;0.20;;;;;;;3.98;100.00;98294.28;5052643;27;99249;-29
2023/01/16 08:23:40;;;;;;;0.00;0.00;;;;;;;3.99;100.00;98287.97;5052660;27;97191;-28
2023/01/16 08:26:05;;;;;;;0.00;0.00;;;;;;;4.02;100.00;98282.38;5052863;27;96457;-29
2023/01/16 08:28:30;;;;;;;0.20;0.17;;;;;;;4.03;100.00;98284.09;5052874;27;96628;-29
2023/01/16 08:31:03;;;;;;;0.25;0.22;;;;;;;4.02;100.00;98277.03;5051118;27;101172;-29
2023/01/16 08:33:29;;;;;;;0.45;0.13;;;;;;;4.04;100.00;98270.56;5051134;27;101052;-29
2023/01/16 08:35:56;;;;;;;0.10;0.05;;;;;;;4.02;100.00;98266.31;5052318;27;96542;-28
2023/01/16 08:38:22;;;;;;;0.55;0.40;;;;;;;4.01;100.00;98254.75;5051072;27;96679;-30
2023/01/16 08:40:47;;;;;;;0.20;0.17;;;;;;;3.99;100.00;98250.47;5052250;27;104371;-29
2023/01/16 08:51:44;;;;;;;0.00;0.00;;;;;;;4.01;100.00;98236.00;5052148;27;97062;-29
2023/01/16 08:54:10;;;;;;;0.00;0.00;;;;;;;4.03;100.00;98230.53;5051167;27;101319;-28
2023/01/16 08:56:40;;;;;;;0.28;0.08;;;;;;;4.06;100.00;98232.97;5052729;27;96566;-29
2023/01/16 08:59:05;;;;;;;2.63;0.32;;;;;;;4.08;100.00;98224.81;5050988;27;96800;-29
2023/01/16 09:01:31;;;;;;;0.47;0.30;;;;;;;4.07;100.00;98215.91;5051789;27;97470;-28
2023/01/16 09:03:56;;;;;;;0.10;0.10;;;;;;;4.08;100.00;98208.75;5052265;27;97385;-29
2023/01/16 09:06:22;;;;;;;0.15;0.13;;;;;;;4.09;100.00;98202.41;5052269;27;96649;-29
2023/01/16 09:08:47;;;;;;;0.00;0.00;;;;;;;4.07;100.00;98205.19;5052191;27;96693;-29
2023/01/16 09:14:00;;;;;;;0.28;0.10;;;;;;;4.15;100.00;98202.78;5052314;27;96599;-28
2023/01/16 09:16:25;;;;;;;0.22;0.20;;;;;;;4.18;100.00;98199.88;5051943;27;96544;-29
2023/01/16 09:18:51;;;;;;;0.20;0.20;;;;;;;4.17;100.00;98187.47;5052702;27;96730;-29
2023/01/16 09:21:23;;;;;;;1.08;0.38;;;;;;;4.18;100.00;98173.06;5055268;27;99241;-29
2023/01/16 09:23:49;;;;;;;0.30;0.30;;;;;;;4.18;100.00;98178.44;5055181;27;99326;-29
2023/01/16 09:26:15;;;;;;;0.00;0.00;;;;;;;4.20;100.00;98172.97;5055153;27;96549;-29
2023/01/16 09:28:41;;;;;;;0.00;0.00;;;;;;;4.21;100.00;98174.66;5053620;27;97094;-29
2023/01/16 09:31:06;;;;;;;0.40;0.35;;;;;;;4.22;100.00;98171.03;5053792;27;101119;-30
2023/01/16 09:33:31;;;;;;;0.35;0.20;;;;;;;4.21;100.00;98167.47;5055246;27;99193;-29
2023/01/16 09:35:57;;;;;;;0.05;0.03;;;;;;;4.24;100.00;98169.06;5055483;27;96475;-29
2023/01/16 09:38:22;;;;;;;0.85;0.43;;;;;;;4.25;100.00;98160.06;5055596;27;96484;-29
2023/01/16 09:40:54;;;;;;;0.20;0.20;;;;;;;4.24;100.00;98153.84;5054943;27;98544;-28
2023/01/16 09:43:41;;;;;;;0.25;0.25;;;;;;;4.26;100.00;98151.88;5054204;27;100800;-29
2023/01/16 09:46:10;;;;;;;0.30;0.22;;;;;;;4.26;100.00;98143.00;5053669;27;96825;-29
2023/01/16 09:49:22;;;;;;;0.88;0.43;;;;;;;4.30;100.00;98138.25;5055291;27;97342;-28
2023/01/16 10:00:18;;;;;;;0.22;0.20;;;;;;;4.34;100.00;98127.19;5055139;27;96713;-30
2023/01/16 10:02:43;;;;;;;0.25;0.25;;;;;;;4.34;100.00;98123.63;5053543;27;100078;-30
2023/01/16 10:05:10;;;;;;;0.08;0.08;;;;;;;4.34;100.00;98126.31;5054590;27;99877;-28
2023/01/16 10:07:38;;;;;;;0.45;0.28;;;;;;;4.37;100.00;98120.72;5053620;27;96489;-29
2023/01/16 10:10:29;;;;;;;0.20;0.20;;;;;;;4.38;100.00;98128.63;5053891;27;96881;-29
2023/01/16 10:13:06;;;;;;;0.25;0.17;;;;;;;4.39;100.00;98124.13;5054379;27;99376;-29
2023/01/16 10:15:49;;;;;;;1.42;0.30;;;;;;;4.38;100.00;98115.22;5053179;27;100732;-28
2023/01/16 10:18:43;;;;;;;0.52;0.35;;;;;;;4.40;100.00;98112.44;5052750;27;97132;-28
2023/01/16 10:21:36;;;;;;;1.33;0.50;;;;;;;4.37;100.00;98108.16;5053257;27;97126;-28
2023/01/16 10:24:18;;;;;;;1.55;0.90;;;;;;;4.38;100.00;98112.53;5054330;27;99744;-29
2023/01/16 10:26:53;;;;;;;1.20;0.40;;;;;;;4.39;100.00;98103.53;5054629;27;97322;-28
2023/01/16 10:29:34;;;;;;;0.40;0.30;;;;;;;4.41;100.00;98096.22;5052809;27;96780;-29
2023/01/16 10:32:13;;;;;;;0.28;0.20;;;;;;;4.42;100.00;98086.34;5052199;27;96688;-29
2023/01/16 10:34:56;;;;;;;0.43;0.30;;;;;;;4.45;100.00;98081.59;5053078;27;100799;-29
2023/01/16 10:37:23;;;;;;;0.60;0.47;;;;;;;4.44;100.00;98071.00;5053360;27;100978;-29
2023/01/16 10:39:50;;;;;;;0.10;0.10;;;;;;;4.43;100.00;98072.84;5052663;27;96620;-29
2023/01/16 10:50:44;;;;;;;0.00;0.00;;;;;;;4.56;100.00;98055.75;5052341;27;96697;-28
2023/01/16 10:53:11;;;;;;;0.10;0.10;;;;;;;4.61;100.00;98043.66;5052832;27;96813;-29
2023/01/16 10:55:41;;;;;;;0.25;0.17;;;;;;;4.65;100.00;98049.66;5052671;27;100928;-30
2023/01/16 10:58:19;;;;;;;0.00;0.00;;;;;;;4.76;100.00;98056.78;5052688;27;100917;-29
2023/01/16 11:00:45;;;;;;;0.20;0.17;;;;;;;4.83;100.00;98047.25;5054183;27;96687;-30
2023/01/16 11:03:27;;;;;;;0.10;0.08;;;;;;;4.89;100.00;98041.38;5054434;27;96571;-29
2023/01/16 11:06:15;;;;;;;0.10;0.10;;;;;;;4.87;100.00;98025.41;5052474;27;100731;-31
2023/01/16 11:08:42;;;;;;;0.10;0.10;;;;;;;4.92;100.00;98033.06;5052592;27;100788;-29
2023/01/16 11:19:30;;;;;;;0.65;0.30;;;;;;;5.02;99.45;98015.22;5053638;27;97010;-29
2023/01/16 11:22:03;;;;;;;0.03;0.03;;;;;;;5.07;99.24;98012.16;5052090;27;96654;-29
2023/01/16 11:24:35;;;;;;;0.08;0.08;;;;;;;5.09;99.12;98007.50;5053840;27;96591;-29
2023/01/16 11:27:04;;;;;;;0.30;0.10;;;;;;;5.08;98.45;98000.47;5052158;27;99084;-29
2023/01/16 11:29:38;;;;;;;0.08;0.08;;;;;;;5.15;98.08;97992.72;5051727;27;99221;-29
2023/01/16 11:32:08;;;;;;;0.00;0.00;;;;;;;5.20;98.10;97991.34;5051902;27;96764;-29
2023/01/16 11:34:36;;;;;;;0.00;0.00;;;;;;;5.20;97.84;97993.19;5053646;27;96725;-29
2023/01/16 11:37:05;;;;;;;0.10;0.10;;;;;;;5.18;97.98;97987.09;5052824;27;98036;-29
2023/01/16 11:39:32;;;;;;;0.10;0.10;;;;;;;5.15;97.97;97987.34;5052003;27;100918;-29
2023/01/16 11:46:01;;;;;;;0.57;0.30;;;;;;;5.15;98.16;97987.34;5051874;27;96550;-29
2023/01/16 11:47:40;;;;;;;1.25;0.40;;;;;;;5.20;98.94;97977.94;5051958;27;97034;-29
2023/01/16 11:50:21;;;;;;;0.00;0.00;;;;;;;5.21;98.42;97976.94;5049709;27;101010;-29
2023/01/16 11:52:47;;;;;;;0.45;0.08;;;;;;;5.23;99.16;97971.47;5049972;27;97359;-34
2023/01/16 11:55:15;;;;;;;0.35;0.15;;;;;;;5.23;98.71;97974.97;5050492;27;97055;-29
2023/01/16 11:58:08;;;;;;;0.15;0.10;;;;;;;5.22;98.64;97961.69;5049826;27;101147;-32
2023/01/16 12:01:12;;;;;;;0.08;0.08;;;;;;;5.24;98.52;97973.16;5049645;27;100949;-29
2023/01/16 12:03:49;;;;;;;0.17;0.17;;;;;;;5.16;98.91;97951.50;5020270;27;97042;-31
2023/01/16 12:06:35;;;;;;;0.00;0.00;;;;;;;5.17;99.62;97961.25;5050935;27;96852;-32
2023/01/16 12:09:50;;;;;;;0.10;0.10;;;;;;;5.08;100.00;97944.97;5051014;27;97931;-33
2023/01/16 12:15:39;;;;;;;0.10;0.10;;;;;;;5.19;100.00;97945.88;5030167;27;96993;-30
2023/01/16 12:18:17;;;;;;;0.57;0.52;;;;;;;5.18;100.00;97941.50;5044905;27;100346;-29
2023/01/16 12:21:03;;;;;;;1.02;0.55;;;;;;;5.14;100.00;97932.00;5051380;27;100968;-28
2023/01/16 12:24:11;;;;;;;0.20;0.20;;;;;;;5.10;99.89;97929.59;5051490;27;100895;-29
2023/01/16 12:27:00;;;;;;;0.10;0.10;;;;;;;5.04;100.00;97930.09;5049942;27;96840;-29
2023/01/16 12:29:40;;;;;;;0.82;0.32;;;;;;;5.03;100.00;97930.22;5050604;27;96891;-30
2023/01/16 12:32:16;;;;;;;0.13;0.08;;;;;;;5.03;100.00;97925.72;5052355;27;97888;-29
2023/01/16 12:34:41;;;;;;;0.10;0.10;;;;;;;5.03;100.00;97914.13;5050967;27;99095;-30
2023/01/16 12:37:37;;;;;;;0.25;0.10;;;;;;;5.01;100.00;97918.81;5052062;27;96680;-29
2023/01/16 12:40:33;;;;;;;5.88;0.30;;;;;;;5.04;100.00;97905.97;5050035;27;96805;-30
2023/01/16 12:43:23;;;;;;;0.10;0.10;;;;;;;5.07;100.00;97907.53;5052070;27;97992;-29
2023/01/16 12:45:58;;;;;;;0.30;0.20;;;;;;;5.02;100.00;97904.41;5052130;27;99319;-30
2023/01/16 12:48:39;;;;;;;1.35;0.43;;;;;;;4.99;100.00;97902.84;5050814;27;96736;-29
2023/01/16 12:51:41;;;;;;;3.42;0.35;;;;;;;4.99;100.00;97897.47;5051672;27;96646;-31